Time;durP1;ratioP1;P1;durP2;ratioP2;P2;SDS_P1;SDS_P2;PMS_P1;PMS_P2;Temp;Humidity;BMP_temperature;BMP_pressure;BME280_temperature;BME280_humidity;BME280_pressure;Samples;Min_cycle;Max_cycle;Signal;HPM_P1;HPM_P2
2023/09/10 00:01:07;;;;;;;27.50;21.40;;;;;;;17.95;100.00;101530.50;7366725;19;20567;-44
2023/09/10 00:03:40;;;;;;;25.63;19.40;;;;;;;17.99;100.00;101522.75;7387694;19;20409;-47
2023/09/10 00:06:11;;;;;;;25.30;18.87;;;;;;;18.04;100.00;101511.53;7366853;19;20465;-46
2023/09/10 00:08:40;;;;;;;25.80;18.50;;;;;;;18.00;100.00;101508.84;7393240;19;20969;-47
2023/09/10 00:11:10;;;;;;;26.70;19.53;;;;;;;17.85;100.00;101510.25;7367459;19;20413;-47
2023/09/10 00:13:40;;;;;;;26.87;19.70;;;;;;;17.78;100.00;101506.59;7394744;19;20499;-46
2023/09/10 00:16:10;;;;;;;26.47;20.03;;;;;;;17.77;100.00;101502.22;7367842;19;20450;-47
2023/09/10 00:18:42;;;;;;;24.53;18.00;;;;;;;17.66;100.00;101494.16;7393463;19;20419;-45
2023/09/10 00:21:11;;;;;;;26.83;19.70;;;;;;;17.70;100.00;101491.59;7367639;19;20518;-46
2023/09/10 00:23:41;;;;;;;26.13;19.73;;;;;;;17.75;100.00;101490.00;7391562;19;20960;-46
2023/09/10 00:26:12;;;;;;;29.87;19.83;;;;;;;17.71;100.00;101493.38;7367340;19;20481;-47
2023/09/10 00:28:41;;;;;;;29.90;20.63;;;;;;;17.62;100.00;101486.19;7393233;19;20418;-49
2023/09/10 00:31:11;;;;;;;27.07;19.87;;;;;;;17.52;100.00;101490.31;7367418;19;21165;-44
2023/09/10 00:33:43;;;;;;;29.50;21.60;;;;;;;17.55;100.00;101487.78;7391908;19;20435;-44
2023/09/10 00:36:13;;;;;;;30.80;22.87;;;;;;;17.60;100.00;101483.56;7366910;19;20447;-46
2023/09/10 00:38:42;;;;;;;34.80;22.77;;;;;;;17.68;100.00;101482.03;7392040;19;20507;-48
2023/09/10 00:41:12;;;;;;;27.77;21.30;;;;;;;17.73;100.00;101474.28;7368436;19;20815;-45
2023/09/10 00:43:41;;;;;;;37.10;24.37;;;;;;;17.77;100.00;101475.25;7391238;19;20396;-44
2023/09/10 00:46:11;;;;;;;35.97;25.80;;;;;;;17.78;100.00;101479.59;7366105;19;20466;-47
2023/09/10 00:48:44;;;;;;;32.93;23.70;;;;;;;17.80;100.00;101475.34;7391749;19;20403;-46
2023/09/10 00:51:14;;;;;;;34.33;23.20;;;;;;;17.74;100.00;101475.19;7367804;19;20435;-45
2023/09/10 00:53:44;;;;;;;37.57;26.03;;;;;;;17.72;100.00;101469.03;7390725;19;20783;-45
2023/09/10 00:56:14;;;;;;;30.37;22.73;;;;;;;17.66;100.00;101468.06;7366466;19;20450;-44
2023/09/10 00:58:44;;;;;;;31.63;23.80;;;;;;;17.59;100.00;101468.75;7394362;19;20439;-47
2023/09/10 01:01:15;;;;;;;35.67;23.80;;;;;;;17.53;100.00;101463.38;7362832;19;20802;-45
2023/09/10 01:03:47;;;;;;;39.13;26.30;;;;;;;17.37;100.00;101460.41;7391544;19;20479;-47
2023/09/10 01:06:17;;;;;;;39.53;27.20;;;;;;;17.33;100.00;101455.94;7366327;19;20457;-46
2023/09/10 01:08:47;;;;;;;34.40;25.37;;;;;;;17.28;100.00;101458.44;7388898;19;20494;-48
2023/09/10 01:11:22;;;;;;;34.07;25.00;;;;;;;17.21;100.00;101464.34;7366549;19;20449;-48
2023/09/10 01:13:57;;;;;;;34.70;25.80;;;;;;;17.11;100.00;101463.22;7390846;19;20418;-46
2023/09/10 01:16:33;;;;;;;39.43;25.93;;;;;;;17.13;100.00;101460.69;7365151;19;20458;-45
2023/09/10 01:19:08;;;;;;;32.30;24.60;;;;;;;17.11;100.00;101450.19;7390941;19;20484;-48
2023/09/10 01:21:44;;;;;;;38.13;24.67;;;;;;;17.24;100.00;101445.31;7361265;19;20426;-44
2023/09/10 01:24:27;;;;;;;39.87;26.33;;;;;;;17.10;100.00;101440.63;7392305;19;20424;-45
2023/09/10 01:27:00;;;;;;;39.50;28.00;;;;;;;16.95;100.00;101453.19;7366908;19;20808;-45
2023/09/10 01:29:30;;;;;;;39.27;26.80;;;;;;;16.94;100.00;101454.06;7395050;19;20821;-45
2023/09/10 01:32:02;;;;;;;44.67;29.23;;;;;;;16.88;100.00;101452.19;7367731;19;20818;-47
2023/09/10 01:34:34;;;;;;;44.43;29.37;;;;;;;16.92;100.00;101450.53;7395291;19;20396;-45
2023/09/10 01:37:10;;;;;;;46.13;29.53;;;;;;;16.82;100.00;101442.44;7366310;19;20990;-47
2023/09/10 01:39:43;;;;;;;40.47;28.10;;;;;;;16.82;100.00;101439.84;7393072;19;20828;-43
2023/09/10 01:42:15;;;;;;;44.77;30.77;;;;;;;16.76;100.00;101438.81;7367673;19;20433;-46
2023/09/10 01:44:44;;;;;;;43.73;29.90;;;;;;;16.68;100.00;101438.59;7392996;19;20428;-45
2023/09/10 01:47:14;;;;;;;42.13;28.73;;;;;;;16.67;100.00;101435.09;7366461;19;21343;-45
2023/09/10 01:49:44;;;;;;;48.70;29.53;;;;;;;16.71;100.00;101436.06;7393016;19;20407;-44
2023/09/10 01:52:13;;;;;;;45.97;28.97;;;;;;;16.78;100.00;101427.59;7367169;19;20415;-45
2023/09/10 01:54:43;;;;;;;41.43;30.87;;;;;;;16.81;100.00;101435.47;7394196;19;20408;-45
2023/09/10 01:57:15;;;;;;;50.97;35.23;;;;;;;16.72;100.00;101430.91;7366304;19;20471;-45
2023/09/10 01:59:45;;;;;;;48.00;32.70;;;;;;;16.70;100.00;101434.31;7392774;19;20488;-47
2023/09/10 02:02:15;;;;;;;53.07;33.10;;;;;;;16.74;100.00;101425.75;7364079;19;20430;-44
2023/09/10 02:04:44;;;;;;;47.87;32.47;;;;;;;16.80;100.00;101427.63;7392847;19;20475;-46
2023/09/10 02:07:14;;;;;;;49.83;33.90;;;;;;;16.92;100.00;101429.69;7365011;19;20470;-46
2023/09/10 02:09:44;;;;;;;47.13;32.30;;;;;;;16.80;100.00;101423.31;7393407;19;20409;-46
2023/09/10 02:12:16;;;;;;;50.97;34.73;;;;;;;16.71;100.00;101423.03;7367055;19;20444;-47
2023/09/10 02:14:48;;;;;;;53.20;35.33;;;;;;;16.74;100.00;101423.13;7391595;19;20940;-47
2023/09/10 02:17:18;;;;;;;56.30;37.40;;;;;;;16.63;100.00;101429.78;7365228;19;20459;-46
2023/09/10 02:19:48;;;;;;;53.83;36.40;;;;;;;16.62;100.00;101431.50;7392671;19;20434;-44
2023/09/10 02:22:18;;;;;;;52.80;35.13;;;;;;;16.55;100.00;101432.16;7373672;19;20427;-46
2023/09/10 02:24:50;;;;;;;52.97;34.97;;;;;;;16.47;100.00;101434.56;7398465;19;20399;-46
2023/09/10 02:27:22;;;;;;;54.40;37.20;;;;;;;16.49;100.00;101438.09;7373125;19;20459;-45
2023/09/10 02:29:52;;;;;;;49.37;34.80;;;;;;;16.55;100.00;101435.66;7398720;19;20411;-47
2023/09/10 02:32:22;;;;;;;52.27;35.80;;;;;;;16.63;100.00;101437.59;7373952;19;20437;-49
2023/09/10 02:34:53;;;;;;;60.87;38.30;;;;;;;16.43;100.00;101441.41;7398341;19;20411;-46
2023/09/10 02:37:23;;;;;;;60.07;40.17;;;;;;;16.37;100.00;101455.97;7370867;19;20876;-48
2023/09/10 02:39:52;;;;;;;57.60;39.47;;;;;;;16.37;100.00;101458.56;7398571;19;20404;-46
2023/09/10 02:42:24;;;;;;;62.10;38.87;;;;;;;16.38;100.00;101463.81;7373024;19;20427;-46
2023/09/10 02:44:54;;;;;;;58.20;38.23;;;;;;;16.34;100.00;101456.75;7398608;19;20415;-45
2023/09/10 02:47:24;;;;;;;65.07;41.80;;;;;;;16.25;100.00;101466.91;7371416;19;20470;-46
2023/09/10 02:49:54;;;;;;;65.37;43.23;;;;;;;16.25;100.00;101470.38;7397936;19;20403;-45
2023/09/10 02:52:24;;;;;;;65.10;41.70;;;;;;;16.23;100.00;101466.88;7372877;19;20431;-46
2023/09/10 02:54:54;;;;;;;72.33;42.77;;;;;;;16.19;100.00;101463.28;7397749;19;20498;-45
2023/09/10 02:57:26;;;;;;;70.70;46.00;;;;;;;16.20;100.00;101458.94;7370458;19;20805;-44
2023/09/10 02:59:56;;;;;;;73.20;47.00;;;;;;;16.22;100.00;101456.41;7398071;19;20483;-45
2023/09/10 03:02:25;;;;;;;66.27;44.33;;;;;;;16.24;100.00;101446.94;7371809;19;20423;-47
2023/09/10 03:04:53;;;;;;;77.77;45.80;;;;;;;16.20;100.00;101448.53;7397908;19;20426;-46
2023/09/10 03:07:23;;;;;;;75.37;47.37;;;;;;;16.13;100.00;101446.59;7371477;19;20475;-46
2023/09/10 03:09:53;;;;;;;72.77;45.57;;;;;;;16.09;100.00;101448.22;7397416;19;20415;-47
2023/09/10 03:12:30;;;;;;;132.87;74.87;;;;;;;16.14;100.00;101448.34;7372226;19;20427;-46
2023/09/10 03:14:59;;;;;;;75.73;45.67;;;;;;;16.05;100.00;101443.78;7396326;19;20467;-46
2023/09/10 03:17:29;;;;;;;66.87;42.77;;;;;;;15.98;100.00;101434.00;7371079;19;20469;-48
2023/09/10 03:19:58;;;;;;;115.73;68.80;;;;;;;16.03;100.00;101445.44;7398319;19;20408;-45
2023/09/10 03:22:28;;;;;;;70.83;44.40;;;;;;;16.25;100.00;101444.34;7372678;19;20463;-47
2023/09/10 03:25:00;;;;;;;74.57;44.50;;;;;;;16.51;100.00;101444.22;7396579;19;20943;-44
2023/09/10 03:27:32;;;;;;;92.93;55.83;;;;;;;16.87;100.00;101426.97;7372015;19;20475;-47
2023/09/10 03:30:05;;;;;;;97.90;56.10;;;;;;;16.86;100.00;101430.38;7396620;19;20420;-46
2023/09/10 03:32:34;;;;;;;101.07;58.23;;;;;;;16.89;100.00;101427.88;7372205;19;20439;-44
2023/09/10 03:35:05;;;;;;;95.60;57.33;;;;;;;17.07;100.00;101434.44;7395250;19;20953;-43
2023/09/10 03:37:34;;;;;;;92.57;56.10;;;;;;;16.97;100.00;101443.72;7372552;19;20451;-45
2023/09/10 03:40:06;;;;;;;91.13;54.80;;;;;;;16.96;100.00;101462.78;7395366;19;20943;-45
2023/09/10 03:42:38;;;;;;;95.57;56.87;;;;;;;17.00;100.00;101469.84;7374522;19;20438;-45
2023/09/10 03:45:08;;;;;;;89.00;52.70;;;;;;;16.84;100.00;101479.88;7371255;19;20400;-43
2023/09/10 03:47:39;;;;;;;98.90;56.17;;;;;;;16.64;100.00;101496.66;7394503;19;20476;-46
2023/09/10 03:50:10;;;;;;;96.07;53.07;;;;;;;16.45;100.00;101504.84;7371482;19;20849;-44
2023/09/10 03:52:40;;;;;;;102.87;59.80;;;;;;;16.38;100.00;101515.00;7393711;19;20793;-46
2023/09/10 03:55:11;;;;;;;106.70;58.40;;;;;;;16.35;100.00;101520.16;7370879;19;20399;-47
2023/09/10 03:57:43;;;;;;;106.30;58.47;;;;;;;16.29;100.00;101523.44;7396358;19;20442;-43
2023/09/10 04:00:13;;;;;;;130.57;67.80;;;;;;;16.30;100.00;101522.59;7369377;19;20411;-44
2023/09/10 04:02:43;;;;;;;208.43;70.90;;;;;;;16.28;100.00;101526.88;7393335;19;20471;-44
2023/09/10 04:05:13;;;;;;;126.47;67.23;;;;;;;16.23;100.00;101516.31;7371272;19;20410;-45
2023/09/10 04:07:43;;;;;;;167.57;69.97;;;;;;;16.15;100.00;101520.44;7393522;19;20416;-45
2023/09/10 04:10:13;;;;;;;150.40;69.20;;;;;;;16.21;100.00;101515.41;7371886;19;20408;-43
2023/09/10 04:12:45;;;;;;;138.70;69.03;;;;;;;16.20;100.00;101516.22;7393048;19;20424;-44
2023/09/10 04:15:15;;;;;;;126.87;69.63;;;;;;;15.99;100.00;101511.25;7369955;19;20403;-45
2023/09/10 04:17:44;;;;;;;124.73;65.40;;;;;;;15.92;100.00;101518.88;7394034;19;20408;-43
2023/09/10 04:20:15;;;;;;;119.83;58.70;;;;;;;15.73;100.00;101513.84;7369477;19;20411;-45
2023/09/10 04:22:44;;;;;;;101.43;57.93;;;;;;;15.78;100.00;101507.97;7395874;19;20411;-45
2023/09/10 04:25:14;;;;;;;100.93;60.20;;;;;;;15.66;100.00;101500.63;7371247;19;20433;-44
2023/09/10 04:27:46;;;;;;;100.23;59.97;;;;;;;15.69;100.00;101494.66;7393515;19;21134;-46
2023/09/10 04:30:16;;;;;;;97.80;56.80;;;;;;;15.62;100.00;101500.50;7370641;19;20414;-46
2023/09/10 04:32:45;;;;;;;110.77;60.40;;;;;;;15.65;100.00;101496.28;7392584;19;20820;-46
2023/09/10 04:35:15;;;;;;;122.83;62.50;;;;;;;15.64;100.00;101498.84;7371399;19;20404;-44
2023/09/10 04:37:45;;;;;;;111.10;61.13;;;;;;;15.59;100.00;101493.47;7386544;19;20466;-43
2023/09/10 04:40:15;;;;;;;114.60;59.37;;;;;;;15.56;100.00;101497.69;7368731;19;20776;-46
2023/09/10 04:42:47;;;;;;;112.80;62.20;;;;;;;15.68;100.00;101505.91;7394065;19;20423;-45
2023/09/10 04:45:16;;;;;;;110.80;62.77;;;;;;;15.83;100.00;101495.09;7369479;19;20831;-47
2023/09/10 04:47:46;;;;;;;111.40;61.90;;;;;;;15.67;100.00;101491.13;7394213;19;20458;-45
2023/09/10 04:50:16;;;;;;;104.83;60.17;;;;;;;15.64;100.00;101484.09;7370761;19;20773;-46
2023/09/10 04:52:45;;;;;;;126.17;65.80;;;;;;;15.65;100.00;101485.00;7393967;19;20411;-45
2023/09/10 04:55:15;;;;;;;125.77;66.60;;;;;;;15.71;100.00;101487.81;7368610;19;20408;-45
2023/09/10 04:57:48;;;;;;;119.17;65.60;;;;;;;15.77;100.00;101485.41;7392083;19;20447;-43
2023/09/10 05:00:18;;;;;;;112.73;59.40;;;;;;;15.76;100.00;101483.66;7369059;19;20430;-45
2023/09/10 05:02:48;;;;;;;117.77;61.10;;;;;;;15.75;100.00;101486.19;7393351;19;20411;-43
2023/09/10 05:05:18;;;;;;;118.53;60.80;;;;;;;15.79;100.00;101490.63;7369025;19;20483;-44
2023/09/10 05:07:50;;;;;;;114.27;60.57;;;;;;;15.82;100.00;101497.66;7392503;19;20447;-43
2023/09/10 05:10:20;;;;;;;107.83;56.57;;;;;;;15.63;100.00;101503.16;7368006;19;20411;-45
2023/09/10 05:12:53;;;;;;;95.97;54.60;;;;;;;15.61;100.00;101501.34;7393801;19;20781;-45
2023/09/10 05:15:22;;;;;;;118.03;58.97;;;;;;;15.66;100.00;101520.59;7368629;19;20407;-48
2023/09/10 05:17:52;;;;;;;103.30;54.00;;;;;;;15.61;100.00;101524.75;7392590;19;20881;-44
2023/09/10 05:20:22;;;;;;;105.97;56.87;;;;;;;15.62;100.00;101536.91;7370702;19;20403;-46
2023/09/10 05:22:51;;;;;;;101.20;53.97;;;;;;;15.59;100.00;101536.81;7392303;19;20411;-44
2023/09/10 05:25:21;;;;;;;135.30;56.20;;;;;;;15.66;100.00;101544.84;7369871;19;20410;-44
2023/09/10 05:27:53;;;;;;;115.80;53.17;;;;;;;15.63;100.00;101538.66;7392453;19;20463;-46
2023/09/10 05:30:23;;;;;;;110.40;58.17;;;;;;;15.68;100.00;101542.31;7367577;19;20403;-43
2023/09/10 05:32:53;;;;;;;100.70;53.00;;;;;;;15.84;100.00;101535.91;7391376;19;20434;-46
2023/09/10 05:35:22;;;;;;;109.10;54.00;;;;;;;15.78;100.00;101534.00;7369405;19;20408;-44
2023/09/10 05:37:52;;;;;;;111.77;54.17;;;;;;;15.79;100.00;101535.75;7391358;19;20439;-45
2023/09/10 05:40:22;;;;;;;105.13;53.00;;;;;;;15.75;100.00;101533.88;7368157;19;20848;-45
2023/09/10 05:42:54;;;;;;;140.83;58.30;;;;;;;15.88;100.00;101545.59;7390948;19;20407;-46
2023/09/10 05:45:23;;;;;;;122.00;55.47;;;;;;;15.89;100.00;101538.66;7366216;19;20395;-45
2023/09/10 05:47:53;;;;;;;180.73;72.07;;;;;;;15.88;100.00;101539.47;7387353;19;21744;-45
2023/09/10 05:50:23;;;;;;;163.20;55.93;;;;;;;15.83;100.00;101541.06;7368833;19;20817;-45
2023/09/10 05:52:55;;;;;;;138.40;55.20;;;;;;;15.83;100.00;101535.88;7390924;19;20432;-46
2023/09/10 05:55:26;;;;;;;127.87;52.37;;;;;;;15.83;100.00;101538.47;7368378;19;20413;-45
2023/09/10 05:57:58;;;;;;;121.93;53.20;;;;;;;15.90;100.00;101535.22;7394665;19;20467;-44
2023/09/10 06:00:27;;;;;;;177.13;66.40;;;;;;;15.86;100.00;101526.44;7370723;19;20915;-47
2023/09/10 06:02:57;;;;;;;146.23;55.73;;;;;;;15.84;100.00;101527.22;7397375;19;20416;-48
2023/09/10 06:05:27;;;;;;;136.00;54.33;;;;;;;15.88;100.00;101535.16;7375376;19;20401;-43
2023/09/10 06:07:56;;;;;;;133.97;54.30;;;;;;;15.87;100.00;101540.31;7397495;19;20439;-45
2023/09/10 06:10:26;;;;;;;145.60;52.73;;;;;;;15.82;100.00;101539.28;7376088;19;20422;-46
2023/09/10 06:12:58;;;;;;;150.03;56.60;;;;;;;15.73;100.00;101540.75;7399566;19;20395;-46
2023/09/10 06:15:28;;;;;;;132.10;49.97;;;;;;;15.68;100.00;101542.31;7372664;19;20407;-48
2023/09/10 06:17:58;;;;;;;121.97;48.20;;;;;;;15.63;100.00;101538.66;7397219;19;20463;-44
2023/09/10 06:20:27;;;;;;;144.33;55.20;;;;;;;15.74;100.00;101542.53;7375901;19;20676;-46
2023/09/10 06:22:57;;;;;;;111.17;45.77;;;;;;;15.68;100.00;101537.13;7396528;19;20779;-45
2023/09/10 06:25:27;;;;;;;124.90;48.60;;;;;;;15.65;100.00;101537.91;7371877;19;20403;-45
2023/09/10 06:27:59;;;;;;;122.83;50.20;;;;;;;15.60;100.00;101539.47;7397829;19;20467;-46
2023/09/10 06:30:28;;;;;;;122.27;51.20;;;;;;;15.63;100.00;101538.66;7372240;19;20408;-46
2023/09/10 06:32:59;;;;;;;135.77;52.17;;;;;;;15.65;100.00;101543.09;7396674;19;20769;-46
2023/09/10 06:35:29;;;;;;;166.97;63.40;;;;;;;15.78;100.00;101548.72;7371692;19;21673;-46
2023/09/10 06:37:59;;;;;;;135.00;49.13;;;;;;;15.63;100.00;101549.97;7397283;19;20514;-47
2023/09/10 06:40:28;;;;;;;133.43;50.70;;;;;;;15.68;100.00;101559.66;7372485;19;20398;-45
2023/09/10 06:43:03;;;;;;;170.77;55.93;;;;;;;15.69;100.00;101557.09;7394649;19;20946;-44
2023/09/10 06:45:33;;;;;;;119.90;48.60;;;;;;;15.69;100.00;101559.69;7372289;19;20540;-45
2023/09/10 06:48:03;;;;;;;118.80;47.50;;;;;;;15.79;100.00;101571.28;7395377;19;21144;-50
2023/09/10 06:50:32;;;;;;;119.00;47.80;;;;;;;15.85;100.00;101560.22;7371841;19;20412;-45
2023/09/10 06:53:02;;;;;;;127.77;50.33;;;;;;;15.80;100.00;101562.66;7394852;19;20408;-47
2023/09/10 06:55:32;;;;;;;108.13;48.20;;;;;;;15.73;100.00;101566.78;7372365;19;20419;-47
2023/09/10 06:58:04;;;;;;;115.97;49.50;;;;;;;15.73;100.00;101590.19;7395240;19;20445;-48
2023/09/10 07:00:33;;;;;;;128.27;46.47;;;;;;;15.77;100.00;101585.97;7373501;19;20399;-48
2023/09/10 07:03:06;;;;;;;185.73;99.43;;;;;;;15.83;100.00;101593.13;7396998;19;20403;-42
2023/09/10 07:05:36;;;;;;;116.73;47.20;;;;;;;15.89;100.00;101598.53;7372670;19;20458;-45
2023/09/10 07:08:06;;;;;;;131.20;48.87;;;;;;;15.77;100.00;101601.56;7394722;19;20447;-45
2023/09/10 07:10:36;;;;;;;140.90;63.57;;;;;;;16.11;100.00;101600.13;7374204;19;20941;-45
2023/09/10 07:13:09;;;;;;;120.60;50.70;;;;;;;16.08;100.00;101599.13;7393628;19;20482;-44
2023/09/10 07:15:39;;;;;;;118.47;55.63;;;;;;;16.38;100.00;101611.34;7371254;19;20391;-47
2023/09/10 07:18:09;;;;;;;115.87;54.10;;;;;;;16.26;100.00;101625.75;7394585;19;20975;-45
2023/09/10 07:20:38;;;;;;;99.33;43.97;;;;;;;16.29;100.00;101633.69;7370904;19;20396;-45
2023/09/10 07:23:08;;;;;;;95.20;41.33;;;;;;;16.62;100.00;101634.69;7394337;19;20788;-45
2023/09/10 07:25:38;;;;;;;90.57;41.47;;;;;;;16.52;100.00;101643.94;7371002;19;20407;-45
2023/09/10 07:28:10;;;;;;;100.83;46.50;;;;;;;16.20;100.00;101662.00;7394486;19;20860;-46
2023/09/10 07:30:39;;;;;;;91.47;40.40;;;;;;;16.75;100.00;101672.41;7371096;19;20391;-46
2023/09/10 07:33:10;;;;;;;88.70;39.20;;;;;;;16.83;100.00;101670.91;7394050;19;20399;-46
2023/09/10 07:35:40;;;;;;;86.47;40.93;;;;;;;16.62;100.00;101681.59;7370093;19;20403;-48
2023/09/10 07:38:10;;;;;;;76.43;39.43;;;;;;;16.45;100.00;101694.06;7388112;19;20522;-46
2023/09/10 07:40:39;;;;;;;90.37;38.90;;;;;;;16.35;100.00;101712.84;7369772;19;20391;-44
2023/09/10 07:43:11;;;;;;;91.73;42.03;;;;;;;16.14;100.00;101713.88;7395025;19;20411;-47
2023/09/10 07:45:42;;;;;;;93.23;39.80;;;;;;;16.00;100.00;101724.69;7370059;19;21038;-45
2023/09/10 07:48:12;;;;;;;84.23;39.60;;;;;;;16.04;100.00;101718.78;7394090;19;20454;-49
2023/09/10 07:50:41;;;;;;;99.97;40.63;;;;;;;16.37;100.00;101716.38;7369775;19;21009;-47
2023/09/10 07:53:11;;;;;;;94.23;41.10;;;;;;;16.36;100.00;101702.44;7393444;19;20403;-45
2023/09/10 07:55:40;;;;;;;85.27;38.80;;;;;;;16.10;100.00;101706.81;7369397;19;20395;-45
2023/09/10 07:58:13;;;;;;;82.40;39.23;;;;;;;16.00;100.00;101706.47;7393102;19;20447;-43
2023/09/10 08:00:42;;;;;;;100.80;43.27;;;;;;;16.09;100.00;101715.44;7364305;19;20416;-44
2023/09/10 08:03:14;;;;;;;71.33;36.40;;;;;;;15.96;100.00;101708.91;7393116;19;20408;-46
2023/09/10 08:05:48;;;;;;;78.57;37.40;;;;;;;15.76;100.00;101716.88;7369539;19;20748;-46
2023/09/10 08:08:17;;;;;;;84.87;38.03;;;;;;;16.08;100.00;101701.53;7393557;19;20550;-47
2023/09/10 08:10:47;;;;;;;88.80;38.37;;;;;;;16.03;100.00;101704.00;7369752;19;20399;-45
2023/09/10 08:13:20;;;;;;;82.30;40.10;;;;;;;16.00;100.00;101697.78;7393229;19;20415;-49
2023/09/10 08:15:49;;;;;;;82.40;37.87;;;;;;;16.05;100.00;101693.63;7369569;19;20470;-46
2023/09/10 08:18:19;;;;;;;89.97;36.27;;;;;;;16.04;100.00;101686.63;7392289;19;20522;-49
2023/09/10 08:20:48;;;;;;;93.50;39.53;;;;;;;16.13;100.00;101683.47;7369215;19;20399;-42
2023/09/10 08:23:18;;;;;;;85.70;39.43;;;;;;;16.05;100.00;101689.31;7392645;19;20439;-45
2023/09/10 08:25:51;;;;;;;93.80;39.10;;;;;;;15.95;100.00;101691.53;7370286;19;20391;-44
2023/09/10 08:28:23;;;;;;;83.17;35.30;;;;;;;15.90;100.00;101694.81;7393289;19;21105;-45
2023/09/10 08:30:54;;;;;;;99.63;44.13;;;;;;;16.07;100.00;101697.16;7369690;19;20391;-47
2023/09/10 08:33:25;;;;;;;83.23;36.13;;;;;;;16.05;100.00;101694.50;7392812;19;20479;-47
2023/09/10 08:35:55;;;;;;;78.87;36.30;;;;;;;15.99;100.00;101685.63;7369570;19;20403;-47
2023/09/10 08:38:26;;;;;;;79.60;35.67;;;;;;;16.01;100.00;101690.00;7392937;19;20459;-44
2023/09/10 08:41:05;;;;;;;81.23;34.97;;;;;;;16.16;100.00;101680.97;7368991;19;20447;-45
2023/09/10 08:43:46;;;;;;;97.97;44.13;;;;;;;16.38;100.00;101673.84;7392730;19;20410;-43
2023/09/10 08:46:16;;;;;;;72.47;32.60;;;;;;;16.82;100.00;101674.38;7368777;19;20465;-45
2023/09/10 08:48:46;;;;;;;75.50;31.57;;;;;;;16.67;100.00;101689.53;7393588;19;20400;-49
2023/09/10 08:51:17;;;;;;;62.97;31.30;;;;;;;16.65;100.00;101710.31;7367961;19;20498;-45
2023/09/10 08:53:47;;;;;;;64.10;31.80;;;;;;;16.40;100.00;101734.72;7391588;19;20969;-47
2023/09/10 08:56:17;;;;;;;66.37;32.70;;;;;;;16.42;100.00;101749.53;7367800;19;20508;-46
2023/09/10 08:58:51;;;;;;;74.17;34.50;;;;;;;16.52;100.00;101761.16;7392988;19;20416;-47
2023/09/10 09:01:21;;;;;;;72.97;35.77;;;;;;;16.69;100.00;101779.06;7366444;19;20415;-44
2023/09/10 09:03:51;;;;;;;61.90;29.70;;;;;;;16.79;100.00;101794.16;7394049;19;20399;-44
2023/09/10 09:06:21;;;;;;;74.70;37.83;;;;;;;16.77;100.00;101803.63;7367756;19;20534;-45
2023/09/10 09:08:53;;;;;;;125.20;55.30;;;;;;;16.93;100.00;101819.78;7393097;19;20399;-48
2023/09/10 09:11:27;;;;;;;77.80;37.07;;;;;;;17.05;100.00;101834.94;7368454;19;20427;-45
2023/09/10 09:13:59;;;;;;;58.07;30.50;;;;;;;16.99;100.00;101848.66;7391845;19;20781;-45
2023/09/10 09:16:30;;;;;;;68.87;34.43;;;;;;;17.17;100.00;101863.16;7367687;19;20455;-47
2023/09/10 09:19:00;;;;;;;55.77;27.67;;;;;;;17.14;100.00;101874.38;7393821;19;20475;-45
2023/09/10 09:21:31;;;;;;;66.07;29.27;;;;;;;17.17;100.00;101879.66;7368460;19;20430;-46
2023/09/10 09:24:03;;;;;;;63.63;31.10;;;;;;;17.10;100.00;101878.59;7391186;19;20935;-44
2023/09/10 09:26:33;;;;;;;57.03;28.43;;;;;;;17.17;100.00;101889.22;7367183;19;20483;-45
2023/09/10 09:29:05;;;;;;;60.17;30.13;;;;;;;17.26;100.00;101889.50;7390858;19;20415;-45
2023/09/10 09:31:35;;;;;;;63.63;28.30;;;;;;;17.33;100.00;101888.88;7364173;19;20427;-45
2023/09/10 09:34:05;;;;;;;55.00;28.80;;;;;;;17.39;100.00;101881.25;7391792;19;20490;-43
2023/09/10 09:36:39;;;;;;;56.73;27.67;;;;;;;17.54;100.00;101885.19;7366742;19;20466;-45
2023/09/10 09:39:11;;;;;;;138.87;60.63;;;;;;;17.64;100.00;101887.22;7393738;19;20423;-48
2023/09/10 09:41:41;;;;;;;68.57;33.13;;;;;;;17.79;100.00;101889.41;7365352;19;20423;-48
2023/09/10 09:44:13;;;;;;;63.13;29.30;;;;;;;18.01;100.00;101897.88;7391220;19;20495;-47
2023/09/10 09:46:43;;;;;;;67.07;30.77;;;;;;;18.06;100.00;101900.66;7366080;19;20479;-45
2023/09/10 09:49:12;;;;;;;68.47;31.80;;;;;;;18.00;100.00;101911.75;7391521;19;20938;-46
2023/09/10 09:51:42;;;;;;;61.10;29.50;;;;;;;18.18;100.00;101911.47;7366895;19;20990;-44
2023/09/10 09:54:12;;;;;;;62.77;31.70;;;;;;;18.24;100.00;101925.53;7391996;19;20403;-44
2023/09/10 09:56:45;;;;;;;60.00;30.10;;;;;;;18.28;100.00;101928.28;7364901;19;20546;-44
2023/09/10 09:59:17;;;;;;;63.20;27.73;;;;;;;18.33;100.00;101928.41;7390155;19;20482;-44
2023/09/10 10:01:46;;;;;;;61.13;29.43;;;;;;;18.51;100.00;101932.38;7364897;19;20494;-44
2023/09/10 10:04:18;;;;;;;63.47;29.37;;;;;;;18.74;100.00;101944.34;7390694;19;20399;-47
2023/09/10 10:06:48;;;;;;;74.03;30.77;;;;;;;18.86;100.00;101935.03;7365616;19;20458;-46
2023/09/10 10:09:19;;;;;;;64.57;30.37;;;;;;;18.98;100.00;101935.34;7390967;19;20807;-46
2023/09/10 10:11:49;;;;;;;70.10;32.53;;;;;;;18.82;100.00;101941.03;7366690;19;20445;-44
2023/09/10 10:14:21;;;;;;;60.93;29.57;;;;;;;18.99;100.00;101934.53;7390525;19;20404;-43
2023/09/10 10:16:51;;;;;;;55.20;27.17;;;;;;;19.19;100.00;101936.78;7365100;19;20467;-43
2023/09/10 10:19:22;;;;;;;90.33;39.10;;;;;;;19.28;100.00;101936.13;7391434;19;20408;-48
2023/09/10 10:21:54;;;;;;;82.03;38.60;;;;;;;19.42;100.00;101939.94;7366390;19;20523;-47
2023/09/10 10:24:24;;;;;;;58.57;29.63;;;;;;;19.60;100.00;101945.56;7390578;19;20463;-45
2023/09/10 10:26:54;;;;;;;51.87;26.40;;;;;;;19.58;100.00;101942.03;7365197;19;20546;-44
2023/09/10 10:29:27;;;;;;;65.87;30.17;;;;;;;19.67;100.00;101953.59;7390171;19;20402;-44
2023/09/10 10:31:59;;;;;;;63.87;30.60;;;;;;;19.73;100.00;101958.09;7366565;19;20446;-43
2023/09/10 10:34:33;;;;;;;64.40;31.07;;;;;;;19.84;100.00;101968.78;7390470;19;20407;-46
2023/09/10 10:37:08;;;;;;;58.77;27.37;;;;;;;20.07;100.00;101974.59;7364268;19;20478;-48
2023/09/10 10:39:41;;;;;;;59.80;28.57;;;;;;;20.05;100.00;101981.53;7390656;19;20407;-45
2023/09/10 10:42:13;;;;;;;52.70;25.80;;;;;;;20.08;100.00;101993.81;7369671;19;20506;-44
2023/09/10 10:44:45;;;;;;;72.90;33.90;;;;;;;20.20;100.00;101998.44;7397124;19;20414;-47
2023/09/10 10:47:16;;;;;;;55.10;27.67;;;;;;;20.27;100.00;102005.56;7371589;19;20582;-50
2023/09/10 10:49:53;;;;;;;84.83;39.20;;;;;;;20.42;100.00;102015.50;7396951;19;20935;-48
2023/09/10 10:52:25;;;;;;;50.47;26.20;;;;;;;20.62;100.00;102013.25;7371865;19;20534;-48
2023/09/10 10:54:56;;;;;;;73.53;35.90;;;;;;;20.73;100.00;102016.13;7396962;19;20420;-46
2023/09/10 10:57:27;;;;;;;62.20;33.10;;;;;;;20.79;100.00;102025.84;7370676;19;20538;-49
2023/09/10 10:59:59;;;;;;;62.87;30.50;;;;;;;20.82;100.00;102035.50;7399983;19;20413;-47
2023/09/10 11:02:29;;;;;;;49.03;25.47;;;;;;;20.97;100.00;102032.31;7372094;19;20463;-51
2023/09/10 11:05:02;;;;;;;48.47;26.60;;;;;;;21.09;100.00;102032.53;7400502;19;20413;-45
2023/09/10 11:07:33;;;;;;;54.93;26.13;;;;;;;21.02;100.00;102025.41;7374313;19;20479;-48
2023/09/10 11:10:38;;;;;;;55.67;27.10;;;;;;;21.10;100.00;102034.31;7397355;19;20968;-47
2023/09/10 11:13:07;;;;;;;53.50;28.20;;;;;;;21.21;100.00;102028.38;7374665;19;20442;-47
2023/09/10 11:16:23;;;;;;;52.23;28.50;;;;;;;21.15;100.00;102035.28;7370458;19;20434;-44